Аэропорт: Национальный аэропорт Минск. Минск

ICAO: UMMS

METAR:
2019/01/21 23:00
UMMS 212300Z 26003MPS 230V290 9999 OVC022 M04/M07 Q1017 R31/820342 NOSIG
METAR:
2019/01/21 18:21
TAF TAF UMMS 211708Z 2118/2218 25003MPS 5000 BR BKN007 
      TEMPO 2118/2207 0400 SHSN FZFG BKN002 BKN010CB 
      TEMPO 2207/2218 22006MPS 1200 SHSN BKN003 BKN012CB